sensor_id;sensor_type;location;lat;lon;timestamp;P1;durP1;ratioP1;P2;durP2;ratioP2
37997;SDS011;24079;51.824;4.682;2022-10-17T00:00:49;13.30;;;7.82;;
37997;SDS011;24079;51.824;4.682;2022-10-17T00:03:15;12.23;;;7.65;;
37997;SDS011;24079;51.824;4.682;2022-10-17T00:05:42;11.65;;;7.15;;
37997;SDS011;24079;51.824;4.682;2022-10-17T00:08:12;15.20;;;7.50;;
37997;SDS011;24079;51.824;4.682;2022-10-17T00:10:39;11.70;;;8.18;;
37997;SDS011;24079;51.824;4.682;2022-10-17T00:13:05;12.63;;;7.78;;
37997;SDS011;24079;51.824;4.682;2022-10-17T00:15:31;11.98;;;8.32;;
37997;SDS011;24079;51.824;4.682;2022-10-17T00:17:57;13.70;;;8.35;;
37997;SDS011;24079;51.824;4.682;2022-10-17T00:20:23;10.35;;;8.68;;
37997;SDS011;24079;51.824;4.682;2022-10-17T00:22:49;12.10;;;7.95;;
37997;SDS011;24079;51.824;4.682;2022-10-17T00:25:15;15.07;;;8.43;;
37997;SDS011;24079;51.824;4.682;2022-10-17T00:27:41;16.10;;;9.23;;
37997;SDS011;24079;51.824;4.682;2022-10-17T00:30:09;13.75;;;8.52;;
37997;SDS011;24079;51.824;4.682;2022-10-17T00:32:36;15.23;;;9.02;;
37997;SDS011;24079;51.824;4.682;2022-10-17T00:35:02;14.77;;;8.65;;
37997;SDS011;24079;51.824;4.682;2022-10-17T00:37:29;10.25;;;7.70;;
37997;SDS011;24079;51.824;4.682;2022-10-17T00:39:55;14.27;;;9.35;;
37997;SDS011;24079;51.824;4.682;2022-10-17T00:42:20;14.90;;;9.20;;
37997;SDS011;24079;51.824;4.682;2022-10-17T00:47:15;13.15;;;8.88;;
37997;SDS011;24079;51.824;4.682;2022-10-17T00:49:43;14.43;;;9.18;;
37997;SDS011;24079;51.824;4.682;2022-10-17T00:52:20;14.75;;;9.82;;
37997;SDS011;24079;51.824;4.682;2022-10-17T00:54:48;22.15;;;10.93;;
37997;SDS011;24079;51.824;4.682;2022-10-17T00:57:19;13.23;;;9.30;;
37997;SDS011;24079;51.824;4.682;2022-10-17T00:59:48;17.95;;;10.10;;
37997;SDS011;24079;51.824;4.682;2022-10-17T01:02:18;14.25;;;9.70;;
37997;SDS011;24079;51.824;4.682;2022-10-17T01:04:47;13.18;;;9.25;;
37997;SDS011;24079;51.824;4.682;2022-10-17T01:07:16;14.02;;;9.93;;
37997;SDS011;24079;51.824;4.682;2022-10-17T01:09:42;14.02;;;8.80;;
37997;SDS011;24079;51.824;4.682;2022-10-17T01:12:17;12.02;;;9.85;;
37997;SDS011;24079;51.824;4.682;2022-10-17T01:37:42;16.02;;;10.50;;
37997;SDS011;24079;51.824;4.682;2022-10-17T01:40:34;14.80;;;9.90;;
37997;SDS011;24079;51.824;4.682;2022-10-17T01:43:10;13.52;;;10.07;;
37997;SDS011;24079;51.824;4.682;2022-10-17T01:45:48;13.60;;;10.13;;
37997;SDS011;24079;51.824;4.682;2022-10-17T01:48:21;13.32;;;9.95;;
37997;SDS011;24079;51.824;4.682;2022-10-17T01:50:53;15.63;;;10.05;;
37997;SDS011;24079;51.824;4.682;2022-10-17T01:53:36;14.05;;;10.55;;
37997;SDS011;24079;51.824;4.682;2022-10-17T01:56:07;13.60;;;9.67;;
37997;SDS011;24079;51.824;4.682;2022-10-17T01:58:37;17.58;;;9.63;;
37997;SDS011;24079;51.824;4.682;2022-10-17T02:01:15;15.13;;;9.95;;
37997;SDS011;24079;51.824;4.682;2022-10-17T02:03:42;14.82;;;9.88;;
37997;SDS011;24079;51.824;4.682;2022-10-17T02:06:10;13.80;;;9.88;;
37997;SDS011;24079;51.824;4.682;2022-10-17T02:08:40;19.45;;;11.43;;
37997;SDS011;24079;51.824;4.682;2022-10-17T02:13:51;12.82;;;10.18;;
37997;SDS011;24079;51.824;4.682;2022-10-17T02:16:37;19.13;;;10.95;;
37997;SDS011;24079;51.824;4.682;2022-10-17T02:24:47;13.48;;;10.20;;
37997;SDS011;24079;51.824;4.682;2022-10-17T02:27:22;16.08;;;10.55;;
37997;SDS011;24079;51.824;4.682;2022-10-17T02:30:05;15.25;;;9.90;;
37997;SDS011;24079;51.824;4.682;2022-10-17T02:32:53;16.08;;;9.93;;
37997;SDS011;24079;51.824;4.682;2022-10-17T02:35:24;16.98;;;10.00;;
37997;SDS011;24079;51.824;4.682;2022-10-17T02:37:54;14.82;;;10.70;;
37997;SDS011;24079;51.824;4.682;2022-10-17T02:40:21;15.82;;;10.57;;
37997;SDS011;24079;51.824;4.682;2022-10-17T02:42:50;14.07;;;10.20;;
37997;SDS011;24079;51.824;4.682;2022-10-17T02:45:18;16.50;;;10.98;;
37997;SDS011;24079;51.824;4.682;2022-10-17T02:48:26;14.20;;;10.07;;
37997;SDS011;24079;51.824;4.682;2022-10-17T02:53:13;13.50;;;9.95;;
37997;SDS011;24079;51.824;4.682;2022-10-17T02:55:45;17.60;;;10.43;;
37997;SDS011;24079;51.824;4.682;2022-10-17T02:58:25;15.63;;;10.05;;
37997;SDS011;24079;51.824;4.682;2022-10-17T03:00:55;14.95;;;9.93;;
37997;SDS011;24079;51.824;4.682;2022-10-17T03:03:23;14.27;;;10.32;;
37997;SDS011;24079;51.824;4.682;2022-10-17T03:05:53;16.50;;;10.05;;
37997;SDS011;24079;51.824;4.682;2022-10-17T03:08:19;11.88;;;9.48;;
37997;SDS011;24079;51.824;4.682;2022-10-17T03:10:45;12.90;;;9.93;;
37997;SDS011;24079;51.824;4.682;2022-10-17T03:13:12;17.17;;;9.93;;
37997;SDS011;24079;51.824;4.682;2022-10-17T03:15:38;13.70;;;10.32;;
37997;SDS011;24079;51.824;4.682;2022-10-17T03:18:04;13.98;;;9.98;;
37997;SDS011;24079;51.824;4.682;2022-10-17T03:20:30;16.48;;;10.25;;
37997;SDS011;24079;51.824;4.682;2022-10-17T03:22:55;13.80;;;9.75;;
37997;SDS011;24079;51.824;4.682;2022-10-17T03:25:21;14.45;;;9.80;;
37997;SDS011;24079;51.824;4.682;2022-10-17T03:27:46;19.23;;;10.73;;
37997;SDS011;24079;51.824;4.682;2022-10-17T03:30:12;16.92;;;10.55;;
37997;SDS011;24079;51.824;4.682;2022-10-17T03:32:37;17.45;;;10.07;;
37997;SDS011;24079;51.824;4.682;2022-10-17T03:35:03;17.83;;;9.32;;
37997;SDS011;24079;51.824;4.682;2022-10-17T03:37:29;15.30;;;10.00;;
37997;SDS011;24079;51.824;4.682;2022-10-17T03:39:55;13.65;;;9.23;;
37997;SDS011;24079;51.824;4.682;2022-10-17T03:42:20;19.73;;;9.98;;
37997;SDS011;24079;51.824;4.682;2022-10-17T03:44:46;14.52;;;9.75;;
37997;SDS011;24079;51.824;4.682;2022-10-17T03:47:11;16.38;;;9.90;;
37997;SDS011;24079;51.824;4.682;2022-10-17T03:49:37;15.55;;;9.77;;
37997;SDS011;24079;51.824;4.682;2022-10-17T03:52:02;14.25;;;9.85;;
37997;SDS011;24079;51.824;4.682;2022-10-17T03:54:28;12.25;;;8.70;;
37997;SDS011;24079;51.824;4.682;2022-10-17T03:56:54;13.23;;;9.55;;
37997;SDS011;24079;51.824;4.682;2022-10-17T03:59:20;13.45;;;9.02;;
37997;SDS011;24079;51.824;4.682;2022-10-17T04:08:29;15.77;;;10.55;;
37997;SDS011;24079;51.824;4.682;2022-10-17T09:18:30;15.82;;;9.38;;
37997;SDS011;24079;51.824;4.682;2022-10-17T09:21:18;19.40;;;9.45;;
37997;SDS011;24079;51.824;4.682;2022-10-17T09:24:05;14.32;;;8.43;;
37997;SDS011;24079;51.824;4.682;2022-10-17T09:27:41;17.38;;;9.82;;
37997;SDS011;24079;51.824;4.682;2022-10-17T09:30:32;14.77;;;9.13;;
37997;SDS011;24079;51.824;4.682;2022-10-17T09:33:17;15.80;;;9.45;;
37997;SDS011;24079;51.824;4.682;2022-10-17T11:17:59;15.60;;;10.68;;
37997;SDS011;24079;51.824;4.682;2022-10-17T11:21:04;12.43;;;10.13;;
37997;SDS011;24079;51.824;4.682;2022-10-17T12:09:17;12.68;;;8.60;;
37997;SDS011;24079;51.824;4.682;2022-10-17T12:45:57;13.85;;;8.85;;
37997;SDS011;24079;51.824;4.682;2022-10-17T12:51:25;14.63;;;8.48;;
37997;SDS011;24079;51.824;4.682;2022-10-17T13:00:52;13.00;;;7.97;;
